LEAB/ABC METAR and TAF weather

Enter ICAO airport designator
Station Type Date Time Source
LEAB METAR 2019/05/20 10:00 UTC NOAA

LEAB 201000Z VRB02KT 9999 FEW045 15/04 Q1014 NOSIG


Station Type Date Time Source
LEAB Decoded METAR 2019/05/20 10:00 UTC NOAA

Albacete / Los Llanos, Spain (LEAB) 38-57N 001-51W 704M
May 20, 2019 - 06:00 AM EDT / 2019.05.20 1000 UTC
Wind: Variable at 2 MPH (2 KT):0
Visibility: greater than 7 mile(s):0
Sky conditions: mostly clear
Temperature: 59 F (15 C)
Dew Point: 39 F (4 C)
Relative Humidity: 47%
Pressure (altimeter): 29.94 in. Hg (1014 hPa)
ob: LEAB 201000Z VRB02KT 9999 FEW045 15/04 Q1014 NOSIG
cycle: 10

Station Type Date Time Source
LEAB TAF 2018/04/26 18:51 UTC NOAA

TAF
AMD LEAB 261747Z 2618/2706 16012KT 9999 FEW040
BECMG 2704/2706 27015KT
TEMPO 2704/2706 BKN014

Example: see airport list